PWSweather.com
Personal Weather Stations
Station Observations
KMAMEDFI2
Medfield, MA 02052

Medfield, MA 02052

Lat: 42.1900822, Lon: -71.3296889

Elevation: 138

Station Type: Rainwise WS MK-III

http://www.medfieldweather.com

Latest ConditionsUpdated 4:10:00 AM EDT Sunday, Aug 31, 2014
Currently Today's Max Today's Min Today's Average
Temperature 68.0°F20.0°C 68.0°F20.0°C 64.6°F18.1°C 66.4°F19.1°C
Dew Point 66.5°F19.2°C 66.5°F19.2°C 63.4°F17.4°C 65.2°F18.4°C
Winds 0.5 mph SW0.8 kmh SW 2.7 mph SW4.3 kmh SW - 1.0 mph 1.6 kmh
Wind Gusts 1.3 mph2.1 kmh 7.8 mph12.6 kmh - -
Humidity 95% 97% 95% 96%
Pressure 30.06 in1017.9 mb 30.10 in1019.3 mb 30.06 in1017.9 mb -
Hour Temp Dew Point Humidity Winds Wind Gusts Pressure Precip Precip Rate Daily Precip Total
04:10 AM 68.0°F20.0°C 66.5°F19.2°C 95% 0.5 mph SW0.8 kmh SW 1.3 mph2.1 kmh 30.06 in1017.9 mb 0.00 in0.0 mm 0.00 in/hr0.0 mm/hr 0.00 in0.0 mm
04:00 AM 67.8°F19.9°C 66.3°F19.1°C 95% 0.1 mph SSW0.2 kmh SSW -- 30.06 in1017.9 mb 0.00 in0.0 mm 0.00 in/hr0.0 mm/hr 0.00 in0.0 mm
03:50 AM 67.8°F19.9°C 66.3°F19.1°C 95% 1.5 mph SSE2.4 kmh SSE 2.6 mph4.2 kmh 30.06 in1017.9 mb 0.00 in0.0 mm 0.00 in/hr0.0 mm/hr 0.00 in0.0 mm
03:40 AM 67.6°F19.8°C 66.1°F18.9°C 95% 0.6 mph SW1.0 kmh SW 2.6 mph4.2 kmh 30.07 in1018.3 mb 0.00 in0.0 mm 0.00 in/hr0.0 mm/hr 0.00 in0.0 mm
03:30 AM 67.4°F19.7°C 66.0°F18.9°C 95% 0.2 mph S0.3 kmh S 2.6 mph4.2 kmh 30.07 in1018.3 mb 0.00 in0.0 mm 0.00 in/hr0.0 mm/hr 0.00 in0.0 mm
03:20 AM 67.3°F19.6°C 66.1°F18.9°C 96% 0.7 mph SW1.1 kmh SW 2.6 mph4.2 kmh 30.07 in1018.3 mb 0.00 in0.0 mm 0.00 in/hr0.0 mm/hr 0.00 in0.0 mm
03:10 AM 67.2°F19.6°C 66.0°F18.9°C 96% 2.4 mph SE3.9 kmh SE 2.6 mph4.2 kmh 30.08 in1018.6 mb 0.00 in0.0 mm 0.00 in/hr0.0 mm/hr 0.00 in0.0 mm
03:00 AM 67.0°F19.4°C 65.9°F18.8°C 96% 0.2 mph SSW0.3 kmh SSW 2.6 mph4.2 kmh 30.08 in1018.6 mb 0.00 in0.0 mm 0.00 in/hr0.0 mm/hr 0.00 in0.0 mm
02:50 AM 66.9°F19.4°C 65.8°F18.8°C 96% 1.5 mph SSW2.4 kmh SSW 2.6 mph4.2 kmh 30.08 in1018.6 mb 0.00 in0.0 mm 0.00 in/hr0.0 mm/hr 0.00 in0.0 mm
02:40 AM 66.8°F19.3°C 65.6°F18.7°C 96% 0.8 mph WSW1.3 kmh WSW 5.2 mph8.4 kmh 30.08 in1018.6 mb 0.00 in0.0 mm 0.00 in/hr0.0 mm/hr 0.00 in0.0 mm
02:30 AM 66.7°F19.3°C 65.6°F18.7°C 96% 2.2 mph SW3.5 kmh SW 3.9 mph6.3 kmh 30.08 in1018.6 mb 0.00 in0.0 mm 0.00 in/hr0.0 mm/hr 0.00 in0.0 mm
02:20 AM 66.7°F19.3°C 65.5°F18.6°C 96% 0.6 mph SSE1.0 kmh SSE 1.3 mph2.1 kmh 30.08 in1018.6 mb 0.00 in0.0 mm 0.00 in/hr0.0 mm/hr 0.00 in0.0 mm
02:10 AM 66.6°F19.2°C 65.4°F18.6°C 96% 1.4 mph SE2.3 kmh SE 2.6 mph4.2 kmh 30.08 in1018.6 mb 0.00 in0.0 mm 0.00 in/hr0.0 mm/hr 0.00 in0.0 mm
02:00 AM 66.6°F19.2°C 65.5°F18.6°C 96% 2.3 mph SW3.7 kmh SW 7.8 mph12.6 kmh 30.09 in1019.0 mb 0.00 in0.0 mm 0.00 in/hr0.0 mm/hr 0.00 in0.0 mm
01:50 AM 66.6°F19.2°C 65.4°F18.6°C 96% 2.7 mph SW4.3 kmh SW 3.9 mph6.3 kmh 30.09 in1019.0 mb 0.00 in0.0 mm 0.00 in/hr0.0 mm/hr 0.00 in0.0 mm
01:40 AM 66.4°F19.1°C 65.2°F18.4°C 96% 0.5 mph E0.8 kmh E 2.6 mph4.2 kmh 30.09 in1019.0 mb 0.00 in0.0 mm 0.00 in/hr0.0 mm/hr 0.00 in0.0 mm
01:30 AM 66.2°F19.0°C 65.3°F18.5°C 97% 1.7 mph S2.7 kmh S 2.6 mph4.2 kmh 30.09 in1019.0 mb 0.00 in0.0 mm 0.00 in/hr0.0 mm/hr 0.00 in0.0 mm
01:20 AM 65.9°F18.8°C 64.8°F18.2°C 96% 0.8 mph NW1.3 kmh NW 2.6 mph4.2 kmh 30.09 in1019.0 mb 0.00 in0.0 mm 0.00 in/hr0.0 mm/hr 0.00 in0.0 mm
01:10 AM 65.7°F18.7°C 64.5°F18.1°C 96% 0.3 mph SE0.5 kmh SE 2.6 mph4.2 kmh 30.09 in1019.0 mb 0.00 in0.0 mm 0.00 in/hr0.0 mm/hr 0.00 in0.0 mm
01:00 AM 65.5°F18.6°C 64.6°F18.1°C 97% 1.0 mph SW1.6 kmh SW 1.3 mph2.1 kmh 30.09 in1019.0 mb 0.00 in0.0 mm 0.00 in/hr0.0 mm/hr 0.00 in0.0 mm
12:50 AM 65.3°F18.5°C 64.5°F18.1°C 97% 0.5 mph SE0.8 kmh SE 2.6 mph4.2 kmh 30.09 in1019.0 mb 0.00 in0.0 mm 0.00 in/hr0.0 mm/hr 0.00 in0.0 mm
12:40 AM 65.1°F18.4°C 64.2°F17.9°C 97% 0.4 mph S0.6 kmh S 2.6 mph4.2 kmh 30.10 in1019.3 mb 0.00 in0.0 mm 0.00 in/hr0.0 mm/hr 0.00 in0.0 mm
12:30 AM 64.9°F18.3°C 64.0°F17.8°C 97% 1.3 mph S2.1 kmh S 2.6 mph4.2 kmh 30.09 in1019.0 mb 0.00 in0.0 mm 0.00 in/hr0.0 mm/hr 0.00 in0.0 mm
12:20 AM 65.0°F18.3°C 63.8°F17.7°C 96% 0.1 mph SE0.2 kmh SE 1.3 mph2.1 kmh 30.10 in1019.3 mb 0.00 in0.0 mm 0.00 in/hr0.0 mm/hr 0.00 in0.0 mm
12:10 AM 64.9°F18.3°C 63.7°F17.6°C 96% 1.8 mph SSW2.9 kmh SSW 3.9 mph6.3 kmh 30.10 in1019.3 mb 0.00 in0.0 mm 0.00 in/hr0.0 mm/hr 0.00 in0.0 mm
12:00 AM 64.6°F18.1°C 63.4°F17.4°C 96% 0.8 mph SW1.3 kmh SW 2.6 mph4.2 kmh 30.10 in1019.3 mb 0.00 in0.0 mm 0.00 in/hr0.0 mm/hr 0.00 in0.0 mm